PWSweather.com
Personal Weather Stations
Station Observations
KOHBELLV2
Sw Richland County, Bellville, OH 44813

Sw Richland CountyBellville, OH 44813

Lat: 40.582, Lon: -82.564

Elevation: 1410

Station Type: Davis Vantage Pro2

http://weather.kimbersigns.com

Latest ConditionsUpdated 8:15:01 AM EDT Tuesday, Jul 23, 2019
Currently Today's Max Today's Min Today's Average
Temperature 61.9°F16.6°C 63.6°F17.6°C 57.7°F14.3°C 60.1°F15.6°C
Dew Point 56.3°F13.5°C 59.7°F15.4°C 52.6°F11.4°C 55.8°F13.2°C
Winds 3.0 mph NW4.8 kmh NW 3.0 mph -4.8 kmh - - 2.1 mph 3.4 kmh
Wind Gusts 5.0 mph8.0 kmh 6.0 mph9.7 kmh - -
Humidity 82% 90% 82% 86%
Pressure 30.00 in1015.9 mb 30.00 in1015.9 mb 29.95 in1014.2 mb -
Hour Temp Dew Point Humidity Winds Wind Gusts Pressure Precip Precip Rate Daily Precip Total
08:15 AM 61.9°F16.6°C 56.3°F13.5°C 82% 3.0 mph NW4.8 kmh NW 5.0 mph8.0 kmh 30.00 in1015.9 mb 0.00 in0.0 mm 0.00 in0.0 mm 0.00 in0.0 mm
08:00 AM 61.1°F16.2°C 55.9°F13.3°C 83% 2.0 mph NW3.2 kmh NW 4.0 mph6.4 kmh 30.00 in1015.9 mb 0.00 in0.0 mm 0.00 in0.0 mm 0.00 in0.0 mm
07:45 AM 60.4°F15.8°C 55.2°F12.9°C 83% 2.0 mph NW3.2 kmh NW 4.0 mph6.4 kmh 30.00 in1015.9 mb 0.00 in0.0 mm 0.00 in0.0 mm 0.00 in0.0 mm
07:30 AM 59.4°F15.2°C 54.2°F12.3°C 83% 2.0 mph NW3.2 kmh NW 4.0 mph6.4 kmh 30.00 in1015.9 mb 0.00 in0.0 mm 0.00 in0.0 mm 0.00 in0.0 mm
07:15 AM 58.7°F14.8°C 53.5°F11.9°C 83% 2.0 mph NW3.2 kmh NW 4.0 mph6.4 kmh 29.99 in1015.6 mb 0.00 in0.0 mm 0.00 in0.0 mm 0.00 in0.0 mm
07:00 AM 58.2°F14.6°C 53.1°F11.7°C 83% 3.0 mph NW4.8 kmh NW 5.0 mph8.0 kmh 29.99 in1015.6 mb 0.00 in0.0 mm 0.00 in0.0 mm 0.00 in0.0 mm
06:45 AM 57.7°F14.3°C 52.6°F11.4°C 83% 3.0 mph NW4.8 kmh NW 6.0 mph9.7 kmh 29.99 in1015.6 mb 0.00 in0.0 mm 0.00 in0.0 mm 0.00 in0.0 mm
06:30 AM 57.7°F14.3°C 52.6°F11.4°C 83% 3.0 mph NW4.8 kmh NW 4.0 mph6.4 kmh 29.98 in1015.2 mb 0.00 in0.0 mm 0.00 in0.0 mm 0.00 in0.0 mm
06:15 AM 57.7°F14.3°C 52.6°F11.4°C 83% 3.0 mph NW4.8 kmh NW 4.0 mph6.4 kmh 29.98 in1015.2 mb 0.00 in0.0 mm 0.00 in0.0 mm 0.00 in0.0 mm
06:00 AM 57.7°F14.3°C 52.9°F11.6°C 84% 2.0 mph NW3.2 kmh NW 5.0 mph8.0 kmh 29.97 in1014.9 mb 0.00 in0.0 mm 0.00 in0.0 mm 0.00 in0.0 mm
05:45 AM 57.9°F14.4°C 53.1°F11.7°C 84% 2.0 mph NW3.2 kmh NW 4.0 mph6.4 kmh 29.97 in1014.9 mb 0.00 in0.0 mm 0.00 in0.0 mm 0.00 in0.0 mm
05:30 AM 57.9°F14.4°C 53.4°F11.9°C 85% 2.0 mph NW3.2 kmh NW 4.0 mph6.4 kmh 29.97 in1014.9 mb 0.00 in0.0 mm 0.00 in0.0 mm 0.00 in0.0 mm
05:15 AM 57.9°F14.4°C 54.1°F12.3°C 87% 2.0 mph NW3.2 kmh NW 4.0 mph6.4 kmh 29.97 in1014.9 mb 0.00 in0.0 mm 0.00 in0.0 mm 0.00 in0.0 mm
05:00 AM 58.1°F14.5°C 54.2°F12.3°C 87% 2.0 mph NW3.2 kmh NW 4.0 mph6.4 kmh 29.97 in1014.9 mb 0.00 in0.0 mm 0.00 in0.0 mm 0.00 in0.0 mm
04:45 AM 58.3°F14.6°C 54.8°F12.7°C 88% 2.0 mph NW3.2 kmh NW 4.0 mph6.4 kmh 29.97 in1014.9 mb 0.00 in0.0 mm 0.00 in0.0 mm 0.00 in0.0 mm
04:30 AM 58.5°F14.7°C 55.0°F12.8°C 88% 2.0 mph NW3.2 kmh NW 4.0 mph6.4 kmh 29.97 in1014.9 mb 0.00 in0.0 mm 0.00 in0.0 mm 0.00 in0.0 mm
04:15 AM 58.8°F14.9°C 55.3°F12.9°C 88% 1.0 mph WNW1.6 kmh WNW 3.0 mph4.8 kmh 29.97 in1014.9 mb 0.00 in0.0 mm 0.00 in0.0 mm 0.00 in0.0 mm
04:00 AM 59.0°F15.0°C 55.4°F13.0°C 88% 2.0 mph NW3.2 kmh NW 4.0 mph6.4 kmh 29.97 in1014.9 mb 0.00 in0.0 mm 0.00 in0.0 mm 0.00 in0.0 mm
03:45 AM 59.2°F15.1°C 56.0°F13.3°C 89% 3.0 mph NW4.8 kmh NW 4.0 mph6.4 kmh 29.96 in1014.6 mb 0.00 in0.0 mm 0.00 in0.0 mm 0.00 in0.0 mm
03:30 AM 59.6°F15.3°C 56.4°F13.6°C 89% 3.0 mph NW4.8 kmh NW 6.0 mph9.7 kmh 29.96 in1014.6 mb 0.00 in0.0 mm 0.00 in0.0 mm 0.00 in0.0 mm
03:15 AM 59.8°F15.4°C 56.9°F13.8°C 90% 3.0 mph NW4.8 kmh NW 5.0 mph8.0 kmh 29.96 in1014.6 mb 0.00 in0.0 mm 0.00 in0.0 mm 0.00 in0.0 mm
03:00 AM 60.2°F15.7°C 56.9°F13.8°C 89% 2.0 mph NW3.2 kmh NW 4.0 mph6.4 kmh 29.96 in1014.6 mb 0.00 in0.0 mm 0.00 in0.0 mm 0.00 in0.0 mm
02:45 AM 60.5°F15.8°C 57.2°F14.0°C 89% 2.0 mph NW3.2 kmh NW 4.0 mph6.4 kmh 29.96 in1014.6 mb 0.00 in0.0 mm 0.00 in0.0 mm 0.00 in0.0 mm
02:30 AM 60.6°F15.9°C 57.7°F14.3°C 90% 2.0 mph NW3.2 kmh NW 3.0 mph4.8 kmh 29.96 in1014.6 mb 0.00 in0.0 mm 0.00 in0.0 mm 0.00 in0.0 mm
02:15 AM 60.7°F15.9°C 57.7°F14.3°C 90% Calm Calm 2.0 mph3.2 kmh 29.96 in1014.6 mb 0.00 in0.0 mm 0.00 in0.0 mm 0.00 in0.0 mm
02:00 AM 61.4°F16.3°C 57.8°F14.3°C 88% 1.0 mph WNW1.6 kmh WNW 2.0 mph3.2 kmh 29.95 in1014.2 mb 0.00 in0.0 mm 0.00 in0.0 mm 0.00 in0.0 mm
01:45 AM 62.1°F16.7°C 57.9°F14.4°C 86% Calm Calm 2.0 mph3.2 kmh 29.95 in1014.2 mb 0.00 in0.0 mm 0.00 in0.0 mm 0.00 in0.0 mm
01:30 AM 62.6°F17.0°C 57.7°F14.3°C 84% 1.0 mph WNW1.6 kmh WNW 3.0 mph4.8 kmh 29.96 in1014.6 mb 0.00 in0.0 mm 0.00 in0.0 mm 0.00 in0.0 mm
01:15 AM 62.8°F17.1°C 57.9°F14.4°C 84% 2.0 mph NW3.2 kmh NW 4.0 mph6.4 kmh 29.96 in1014.6 mb 0.00 in0.0 mm 0.00 in0.0 mm 0.00 in0.0 mm
01:00 AM 63.0°F17.2°C 58.1°F14.5°C 84% 2.0 mph NW3.2 kmh NW 4.0 mph6.4 kmh 29.96 in1014.6 mb 0.00 in0.0 mm 0.00 in0.0 mm 0.00 in0.0 mm
12:45 AM 63.2°F17.3°C 58.6°F14.8°C 85% 2.0 mph NW3.2 kmh NW 4.0 mph6.4 kmh 29.96 in1014.6 mb 0.00 in0.0 mm 0.00 in0.0 mm 0.00 in0.0 mm
12:30 AM 63.4°F17.4°C 58.8°F14.9°C 85% 3.0 mph NW4.8 kmh NW 4.0 mph6.4 kmh 29.96 in1014.6 mb 0.00 in0.0 mm 0.00 in0.0 mm 0.00 in0.0 mm
12:15 AM 63.6°F17.6°C 59.3°F15.2°C 86% 2.0 mph NW3.2 kmh NW 4.0 mph6.4 kmh 29.95 in1014.2 mb 0.00 in0.0 mm 0.00 in0.0 mm 0.00 in0.0 mm
12:00 AM 63.6°F17.6°C 59.7°F15.4°C 87% 2.0 mph NW3.2 kmh NW 4.0 mph6.4 kmh 29.96 in1014.6 mb 0.00 in0.0 mm 0.00 in0.0 mm 0.00 in0.0 mm